sensor_id;sensor_type;location;lat;lon;timestamp;P1;durP1;ratioP1;P2;durP2;ratioP2
12689;SDS011;6409;56.294;14.480;2022-07-30T00:01:04;1.70;;;1.20;;
12689;SDS011;6409;56.294;14.480;2022-07-30T00:03:32;1.77;;;1.67;;
12689;SDS011;6409;56.294;14.480;2022-07-30T00:06:00;7.83;;;1.20;;
12689;SDS011;6409;56.294;14.480;2022-07-30T00:08:27;2.07;;;1.50;;
12689;SDS011;6409;56.294;14.480;2022-07-30T00:10:54;1.53;;;1.43;;
12689;SDS011;6409;56.294;14.480;2022-07-30T00:13:22;6.87;;;1.60;;
12689;SDS011;6409;56.294;14.480;2022-07-30T00:15:49;1.70;;;1.53;;
12689;SDS011;6409;56.294;14.480;2022-07-30T00:18:16;2.10;;;1.57;;
12689;SDS011;6409;56.294;14.480;2022-07-30T00:20:43;1.50;;;1.40;;
12689;SDS011;6409;56.294;14.480;2022-07-30T00:23:10;1.43;;;1.33;;
12689;SDS011;6409;56.294;14.480;2022-07-30T00:25:37;3.30;;;1.33;;
12689;SDS011;6409;56.294;14.480;2022-07-30T00:28:04;1.23;;;1.13;;
12689;SDS011;6409;56.294;14.480;2022-07-30T00:30:33;1.20;;;1.10;;
12689;SDS011;6409;56.294;14.480;2022-07-30T00:33:00;1.80;;;1.67;;
12689;SDS011;6409;56.294;14.480;2022-07-30T00:35:27;1.40;;;1.30;;
12689;SDS011;6409;56.294;14.480;2022-07-30T00:37:54;1.50;;;1.30;;
12689;SDS011;6409;56.294;14.480;2022-07-30T00:40:21;1.30;;;1.20;;
12689;SDS011;6409;56.294;14.480;2022-07-30T00:42:48;1.30;;;1.20;;
12689;SDS011;6409;56.294;14.480;2022-07-30T00:45:16;1.20;;;1.20;;
12689;SDS011;6409;56.294;14.480;2022-07-30T00:47:44;1.40;;;1.30;;
12689;SDS011;6409;56.294;14.480;2022-07-30T00:50:12;1.47;;;1.37;;
12689;SDS011;6409;56.294;14.480;2022-07-30T00:52:40;1.50;;;1.40;;
12689;SDS011;6409;56.294;14.480;2022-07-30T00:55:08;1.43;;;1.33;;
12689;SDS011;6409;56.294;14.480;2022-07-30T00:57:37;2.23;;;1.40;;
12689;SDS011;6409;56.294;14.480;2022-07-30T01:00:05;1.30;;;1.20;;
12689;SDS011;6409;56.294;14.480;2022-07-30T01:02:33;2.63;;;1.60;;
12689;SDS011;6409;56.294;14.480;2022-07-30T01:05:01;1.50;;;1.40;;
12689;SDS011;6409;56.294;14.480;2022-07-30T01:07:29;1.43;;;1.33;;
12689;SDS011;6409;56.294;14.480;2022-07-30T01:09:55;2.67;;;1.37;;
12689;SDS011;6409;56.294;14.480;2022-07-30T01:12:23;1.30;;;1.20;;
12689;SDS011;6409;56.294;14.480;2022-07-30T01:14:51;1.27;;;1.20;;
12689;SDS011;6409;56.294;14.480;2022-07-30T01:17:18;1.80;;;1.70;;
12689;SDS011;6409;56.294;14.480;2022-07-30T01:19:46;2.60;;;1.57;;
12689;SDS011;6409;56.294;14.480;2022-07-30T01:22:18;1.00;;;1.00;;
12689;SDS011;6409;56.294;14.480;2022-07-30T01:24:52;4.37;;;1.43;;
12689;SDS011;6409;56.294;14.480;2022-07-30T01:27:24;1.60;;;1.50;;
12689;SDS011;6409;56.294;14.480;2022-07-30T01:29:52;2.10;;;1.40;;
12689;SDS011;6409;56.294;14.480;2022-07-30T01:32:20;1.20;;;1.20;;
12689;SDS011;6409;56.294;14.480;2022-07-30T01:34:48;1.57;;;1.23;;
12689;SDS011;6409;56.294;14.480;2022-07-30T01:37:15;1.40;;;1.30;;
12689;SDS011;6409;56.294;14.480;2022-07-30T01:39:43;1.63;;;1.30;;
12689;SDS011;6409;56.294;14.480;2022-07-30T01:42:10;1.30;;;1.20;;
12689;SDS011;6409;56.294;14.480;2022-07-30T01:44:40;1.30;;;1.20;;
12689;SDS011;6409;56.294;14.480;2022-07-30T01:47:08;2.30;;;1.73;;
12689;SDS011;6409;56.294;14.480;2022-07-30T01:49:36;1.80;;;1.43;;
12689;SDS011;6409;56.294;14.480;2022-07-30T01:52:05;2.07;;;1.30;;
12689;SDS011;6409;56.294;14.480;2022-07-30T01:54:34;0.83;;;0.83;;
12689;SDS011;6409;56.294;14.480;2022-07-30T01:57:02;1.00;;;1.00;;
12689;SDS011;6409;56.294;14.480;2022-07-30T01:59:30;1.30;;;1.20;;
12689;SDS011;6409;56.294;14.480;2022-07-30T02:02:01;1.60;;;1.30;;
12689;SDS011;6409;56.294;14.480;2022-07-30T02:04:28;1.20;;;1.20;;
12689;SDS011;6409;56.294;14.480;2022-07-30T02:06:57;1.47;;;1.37;;
12689;SDS011;6409;56.294;14.480;2022-07-30T02:09:27;9.10;;;1.40;;
12689;SDS011;6409;56.294;14.480;2022-07-30T02:11:56;1.47;;;1.13;;
12689;SDS011;6409;56.294;14.480;2022-07-30T02:14:43;1.47;;;1.30;;
12689;SDS011;6409;56.294;14.480;2022-07-30T02:17:14;2.13;;;1.30;;
12689;SDS011;6409;56.294;14.480;2022-07-30T02:19:44;0.97;;;0.93;;
12689;SDS011;6409;56.294;14.480;2022-07-30T02:22:15;3.23;;;1.30;;
12689;SDS011;6409;56.294;14.480;2022-07-30T02:24:43;1.00;;;1.00;;
12689;SDS011;6409;56.294;14.480;2022-07-30T02:27:11;1.13;;;1.07;;
12689;SDS011;6409;56.294;14.480;2022-07-30T02:29:40;1.27;;;1.17;;
12689;SDS011;6409;56.294;14.480;2022-07-30T02:32:08;0.90;;;0.90;;
12689;SDS011;6409;56.294;14.480;2022-07-30T02:34:40;1.47;;;1.37;;
12689;SDS011;6409;56.294;14.480;2022-07-30T02:37:09;1.40;;;1.30;;
12689;SDS011;6409;56.294;14.480;2022-07-30T02:39:38;0.83;;;0.83;;
12689;SDS011;6409;56.294;14.480;2022-07-30T02:42:07;1.40;;;1.30;;
12689;SDS011;6409;56.294;14.480;2022-07-30T02:44:34;1.23;;;1.17;;
12689;SDS011;6409;56.294;14.480;2022-07-30T02:47:03;1.40;;;1.30;;
12689;SDS011;6409;56.294;14.480;2022-07-30T02:49:30;1.87;;;1.43;;
12689;SDS011;6409;56.294;14.480;2022-07-30T02:52:01;1.20;;;1.10;;
12689;SDS011;6409;56.294;14.480;2022-07-30T02:54:28;1.80;;;1.37;;
12689;SDS011;6409;56.294;14.480;2022-07-30T02:56:56;2.87;;;1.13;;
12689;SDS011;6409;56.294;14.480;2022-07-30T02:59:25;1.13;;;1.03;;
12689;SDS011;6409;56.294;14.480;2022-07-30T03:01:54;1.30;;;1.20;;
12689;SDS011;6409;56.294;14.480;2022-07-30T03:04:21;1.27;;;1.17;;
12689;SDS011;6409;56.294;14.480;2022-07-30T03:06:49;0.87;;;0.87;;
12689;SDS011;6409;56.294;14.480;2022-07-30T03:09:18;1.03;;;1.03;;
12689;SDS011;6409;56.294;14.480;2022-07-30T03:11:45;1.30;;;1.20;;
12689;SDS011;6409;56.294;14.480;2022-07-30T03:14:15;1.33;;;1.20;;
12689;SDS011;6409;56.294;14.480;2022-07-30T03:16:42;1.50;;;1.40;;
12689;SDS011;6409;56.294;14.480;2022-07-30T03:19:13;1.07;;;1.07;;
12689;SDS011;6409;56.294;14.480;2022-07-30T03:21:41;2.83;;;1.43;;
12689;SDS011;6409;56.294;14.480;2022-07-30T03:24:08;1.10;;;1.10;;
12689;SDS011;6409;56.294;14.480;2022-07-30T03:26:39;1.73;;;1.33;;
12689;SDS011;6409;56.294;14.480;2022-07-30T03:29:07;1.00;;;1.00;;
12689;SDS011;6409;56.294;14.480;2022-07-30T03:31:34;1.13;;;1.13;;
12689;SDS011;6409;56.294;14.480;2022-07-30T03:34:01;1.23;;;1.13;;
12689;SDS011;6409;56.294;14.480;2022-07-30T03:36:28;1.07;;;1.07;;
12689;SDS011;6409;56.294;14.480;2022-07-30T03:38:55;1.27;;;1.17;;
12689;SDS011;6409;56.294;14.480;2022-07-30T03:41:22;1.03;;;1.00;;
12689;SDS011;6409;56.294;14.480;2022-07-30T03:43:51;1.50;;;1.20;;
12689;SDS011;6409;56.294;14.480;2022-07-30T03:46:19;1.37;;;1.20;;
12689;SDS011;6409;56.294;14.480;2022-07-30T03:48:46;1.30;;;1.20;;
12689;SDS011;6409;56.294;14.480;2022-07-30T03:51:13;2.33;;;1.13;;
12689;SDS011;6409;56.294;14.480;2022-07-30T03:53:41;1.53;;;1.43;;
12689;SDS011;6409;56.294;14.480;2022-07-30T03:56:08;1.00;;;1.00;;
12689;SDS011;6409;56.294;14.480;2022-07-30T03:58:36;1.20;;;1.10;;
12689;SDS011;6409;56.294;14.480;2022-07-30T04:01:04;1.10;;;1.10;;
12689;SDS011;6409;56.294;14.480;2022-07-30T04:03:32;2.83;;;1.40;;
12689;SDS011;6409;56.294;14.480;2022-07-30T04:05:59;1.00;;;0.97;;
12689;SDS011;6409;56.294;14.480;2022-07-30T04:08:26;1.17;;;1.17;;
12689;SDS011;6409;56.294;14.480;2022-07-30T04:10:53;1.30;;;1.20;;
12689;SDS011;6409;56.294;14.480;2022-07-30T04:13:20;1.40;;;1.30;;
12689;SDS011;6409;56.294;14.480;2022-07-30T04:15:48;1.40;;;1.17;;
12689;SDS011;6409;56.294;14.480;2022-07-30T04:18:22;1.83;;;1.20;;
12689;SDS011;6409;56.294;14.480;2022-07-30T04:20:49;1.03;;;1.03;;
12689;SDS011;6409;56.294;14.480;2022-07-30T04:23:17;1.20;;;1.10;;
12689;SDS011;6409;56.294;14.480;2022-07-30T04:25:44;1.30;;;1.20;;
12689;SDS011;6409;56.294;14.480;2022-07-30T04:28:11;1.20;;;1.10;;
12689;SDS011;6409;56.294;14.480;2022-07-30T04:30:39;0.97;;;0.97;;
12689;SDS011;6409;56.294;14.480;2022-07-30T04:33:06;1.73;;;1.20;;
12689;SDS011;6409;56.294;14.480;2022-07-30T04:35:35;1.00;;;1.00;;
12689;SDS011;6409;56.294;14.480;2022-07-30T04:38:02;1.27;;;1.17;;
12689;SDS011;6409;56.294;14.480;2022-07-30T04:40:29;1.20;;;1.10;;
12689;SDS011;6409;56.294;14.480;2022-07-30T04:42:56;1.10;;;1.10;;
12689;SDS011;6409;56.294;14.480;2022-07-30T04:45:23;1.17;;;1.10;;
12689;SDS011;6409;56.294;14.480;2022-07-30T04:47:50;1.10;;;1.07;;
12689;SDS011;6409;56.294;14.480;2022-07-30T04:50:19;1.30;;;1.20;;
12689;SDS011;6409;56.294;14.480;2022-07-30T04:52:49;1.50;;;1.13;;
12689;SDS011;6409;56.294;14.480;2022-07-30T04:55:17;1.30;;;1.20;;
12689;SDS011;6409;56.294;14.480;2022-07-30T04:57:44;1.00;;;1.00;;
12689;SDS011;6409;56.294;14.480;2022-07-30T05:00:12;0.90;;;0.90;;
12689;SDS011;6409;56.294;14.480;2022-07-30T05:02:40;1.63;;;1.20;;
12689;SDS011;6409;56.294;14.480;2022-07-30T05:05:08;1.43;;;1.33;;
12689;SDS011;6409;56.294;14.480;2022-07-30T05:07:36;1.23;;;1.13;;
12689;SDS011;6409;56.294;14.480;2022-07-30T05:10:05;3.77;;;1.20;;
12689;SDS011;6409;56.294;14.480;2022-07-30T05:12:33;1.07;;;1.07;;
12689;SDS011;6409;56.294;14.480;2022-07-30T05:15:01;1.07;;;1.00;;
12689;SDS011;6409;56.294;14.480;2022-07-30T05:17:28;4.93;;;1.40;;
12689;SDS011;6409;56.294;14.480;2022-07-30T05:19:55;1.30;;;1.00;;
12689;SDS011;6409;56.294;14.480;2022-07-30T05:22:22;0.97;;;0.97;;
12689;SDS011;6409;56.294;14.480;2022-07-30T05:24:51;0.77;;;0.77;;
12689;SDS011;6409;56.294;14.480;2022-07-30T05:27:19;1.20;;;1.10;;
12689;SDS011;6409;56.294;14.480;2022-07-30T05:29:46;0.80;;;0.80;;
12689;SDS011;6409;56.294;14.480;2022-07-30T05:32:13;0.87;;;0.80;;
12689;SDS011;6409;56.294;14.480;2022-07-30T05:34:40;0.70;;;0.70;;
12689;SDS011;6409;56.294;14.480;2022-07-30T05:37:07;0.80;;;0.80;;
12689;SDS011;6409;56.294;14.480;2022-07-30T05:39:34;0.80;;;0.80;;
12689;SDS011;6409;56.294;14.480;2022-07-30T05:42:01;1.00;;;1.00;;
12689;SDS011;6409;56.294;14.480;2022-07-30T05:44:30;0.73;;;0.73;;
12689;SDS011;6409;56.294;14.480;2022-07-30T05:46:56;0.80;;;0.80;;
12689;SDS011;6409;56.294;14.480;2022-07-30T05:49:23;1.17;;;1.00;;
12689;SDS011;6409;56.294;14.480;2022-07-30T05:51:50;1.20;;;1.10;;
12689;SDS011;6409;56.294;14.480;2022-07-30T05:54:17;0.87;;;0.80;;
12689;SDS011;6409;56.294;14.480;2022-07-30T05:56:44;1.00;;;0.90;;
12689;SDS011;6409;56.294;14.480;2022-07-30T05:59:11;0.80;;;0.80;;
12689;SDS011;6409;56.294;14.480;2022-07-30T06:01:39;0.90;;;0.90;;
12689;SDS011;6409;56.294;14.480;2022-07-30T06:04:06;1.40;;;1.00;;
12689;SDS011;6409;56.294;14.480;2022-07-30T06:06:33;0.70;;;0.70;;
12689;SDS011;6409;56.294;14.480;2022-07-30T06:09:00;1.40;;;1.00;;
12689;SDS011;6409;56.294;14.480;2022-07-30T06:11:27;2.03;;;1.03;;
12689;SDS011;6409;56.294;14.480;2022-07-30T06:13:54;0.73;;;0.73;;
12689;SDS011;6409;56.294;14.480;2022-07-30T06:16:21;1.30;;;0.90;;
12689;SDS011;6409;56.294;14.480;2022-07-30T06:18:51;0.70;;;0.70;;
12689;SDS011;6409;56.294;14.480;2022-07-30T06:21:18;0.90;;;0.90;;
12689;SDS011;6409;56.294;14.480;2022-07-30T06:23:46;1.23;;;0.93;;
12689;SDS011;6409;56.294;14.480;2022-07-30T06:26:14;0.70;;;0.70;;
12689;SDS011;6409;56.294;14.480;2022-07-30T06:28:42;0.90;;;0.90;;
12689;SDS011;6409;56.294;14.480;2022-07-30T06:31:09;0.87;;;0.87;;
12689;SDS011;6409;56.294;14.480;2022-07-30T06:33:37;1.10;;;1.00;;
12689;SDS011;6409;56.294;14.480;2022-07-30T06:36:07;1.03;;;0.90;;
12689;SDS011;6409;56.294;14.480;2022-07-30T06:38:36;0.97;;;0.97;;
12689;SDS011;6409;56.294;14.480;2022-07-30T06:41:04;1.77;;;1.00;;
12689;SDS011;6409;56.294;14.480;2022-07-30T06:43:32;2.70;;;0.80;;
12689;SDS011;6409;56.294;14.480;2022-07-30T06:46:00;0.90;;;0.90;;
12689;SDS011;6409;56.294;14.480;2022-07-30T06:48:28;1.77;;;0.80;;
12689;SDS011;6409;56.294;14.480;2022-07-30T06:50:57;2.00;;;0.80;;
12689;SDS011;6409;56.294;14.480;2022-07-30T06:53:26;1.58;;;0.95;;
12689;SDS011;6409;56.294;14.480;2022-07-30T06:55:53;0.85;;;0.85;;
12689;SDS011;6409;56.294;14.480;2022-07-30T06:58:22;0.80;;;0.80;;
12689;SDS011;6409;56.294;14.480;2022-07-30T07:00:49;0.90;;;0.90;;
12689;SDS011;6409;56.294;14.480;2022-07-30T07:03:16;0.90;;;0.90;;
12689;SDS011;6409;56.294;14.480;2022-07-30T07:05:44;1.55;;;1.02;;
12689;SDS011;6409;56.294;14.480;2022-07-30T07:08:13;2.30;;;1.07;;
12689;SDS011;6409;56.294;14.480;2022-07-30T07:10:42;1.00;;;1.00;;
12689;SDS011;6409;56.294;14.480;2022-07-30T07:13:10;8.82;;;1.33;;
12689;SDS011;6409;56.294;14.480;2022-07-30T07:15:38;1.20;;;1.20;;
12689;SDS011;6409;56.294;14.480;2022-07-30T07:18:06;1.42;;;1.30;;
12689;SDS011;6409;56.294;14.480;2022-07-30T07:20:33;1.50;;;1.40;;
12689;SDS011;6409;56.294;14.480;2022-07-30T07:23:00;1.48;;;1.40;;
12689;SDS011;6409;56.294;14.480;2022-07-30T07:25:27;1.50;;;1.40;;
12689;SDS011;6409;56.294;14.480;2022-07-30T07:27:55;1.50;;;1.50;;
12689;SDS011;6409;56.294;14.480;2022-07-30T07:30:22;1.65;;;1.55;;
12689;SDS011;6409;56.294;14.480;2022-07-30T07:32:49;1.65;;;1.58;;
12689;SDS011;6409;56.294;14.480;2022-07-30T07:35:16;1.88;;;1.77;;
12689;SDS011;6409;56.294;14.480;2022-07-30T07:37:43;2.75;;;1.90;;
12689;SDS011;6409;56.294;14.480;2022-07-30T07:40:10;1.90;;;1.80;;
12689;SDS011;6409;56.294;14.480;2022-07-30T07:42:45;2.92;;;2.00;;
12689;SDS011;6409;56.294;14.480;2022-07-30T07:45:13;2.22;;;2.08;;
12689;SDS011;6409;56.294;14.480;2022-07-30T07:47:44;3.83;;;1.80;;
12689;SDS011;6409;56.294;14.480;2022-07-30T07:50:12;1.85;;;1.75;;
12689;SDS011;6409;56.294;14.480;2022-07-30T07:52:41;1.90;;;1.80;;
12689;SDS011;6409;56.294;14.480;2022-07-30T07:55:08;2.17;;;2.08;;
12689;SDS011;6409;56.294;14.480;2022-07-30T07:57:38;1.95;;;1.85;;
12689;SDS011;6409;56.294;14.480;2022-07-30T08:00:06;2.00;;;1.90;;
12689;SDS011;6409;56.294;14.480;2022-07-30T08:02:35;3.17;;;2.13;;
12689;SDS011;6409;56.294;14.480;2022-07-30T08:05:02;1.88;;;1.80;;
12689;SDS011;6409;56.294;14.480;2022-07-30T08:07:30;2.20;;;1.95;;
12689;SDS011;6409;56.294;14.480;2022-07-30T08:09:57;2.00;;;1.90;;
12689;SDS011;6409;56.294;14.480;2022-07-30T08:12:24;2.00;;;1.90;;
12689;SDS011;6409;56.294;14.480;2022-07-30T08:14:51;2.25;;;1.90;;
12689;SDS011;6409;56.294;14.480;2022-07-30T08:17:18;2.10;;;2.00;;
12689;SDS011;6409;56.294;14.480;2022-07-30T08:19:47;2.20;;;2.00;;
12689;SDS011;6409;56.294;14.480;2022-07-30T08:22:14;2.00;;;1.90;;
12689;SDS011;6409;56.294;14.480;2022-07-30T08:24:40;1.92;;;1.90;;
12689;SDS011;6409;56.294;14.480;2022-07-30T08:27:08;1.85;;;1.85;;
12689;SDS011;6409;56.294;14.480;2022-07-30T08:29:35;1.95;;;1.85;;
12689;SDS011;6409;56.294;14.480;2022-07-30T08:32:02;1.70;;;1.70;;
12689;SDS011;6409;56.294;14.480;2022-07-30T08:34:29;2.20;;;2.10;;
12689;SDS011;6409;56.294;14.480;2022-07-30T08:36:57;1.83;;;1.83;;
12689;SDS011;6409;56.294;14.480;2022-07-30T08:39:24;2.10;;;2.00;;
12689;SDS011;6409;56.294;14.480;2022-07-30T08:41:51;2.10;;;2.00;;
12689;SDS011;6409;56.294;14.480;2022-07-30T08:44:18;1.92;;;1.90;;
12689;SDS011;6409;56.294;14.480;2022-07-30T08:46:46;2.10;;;2.00;;
12689;SDS011;6409;56.294;14.480;2022-07-30T08:49:13;1.90;;;1.85;;
12689;SDS011;6409;56.294;14.480;2022-07-30T08:51:41;2.20;;;2.00;;
12689;SDS011;6409;56.294;14.480;2022-07-30T08:54:10;1.80;;;1.80;;
12689;SDS011;6409;56.294;14.480;2022-07-30T08:56:37;2.08;;;1.98;;
12689;SDS011;6409;56.294;14.480;2022-07-30T08:59:04;2.10;;;2.00;;
12689;SDS011;6409;56.294;14.480;2022-07-30T09:01:30;2.00;;;1.90;;
12689;SDS011;6409;56.294;14.480;2022-07-30T09:03:57;1.90;;;1.90;;
12689;SDS011;6409;56.294;14.480;2022-07-30T09:06:24;2.03;;;1.92;;
12689;SDS011;6409;56.294;14.480;2022-07-30T09:08:51;2.10;;;2.00;;
12689;SDS011;6409;56.294;14.480;2022-07-30T09:11:20;2.00;;;1.90;;
12689;SDS011;6409;56.294;14.480;2022-07-30T09:13:47;2.00;;;1.90;;
12689;SDS011;6409;56.294;14.480;2022-07-30T09:16:18;2.05;;;1.90;;
12689;SDS011;6409;56.294;14.480;2022-07-30T09:18:46;3.28;;;2.28;;
12689;SDS011;6409;56.294;14.480;2022-07-30T09:21:13;1.83;;;1.83;;
12689;SDS011;6409;56.294;14.480;2022-07-30T09:23:53;2.95;;;2.05;;
12689;SDS011;6409;56.294;14.480;2022-07-30T09:26:22;2.00;;;1.90;;
12689;SDS011;6409;56.294;14.480;2022-07-30T09:28:49;1.95;;;1.85;;
12689;SDS011;6409;56.294;14.480;2022-07-30T09:31:18;2.65;;;1.90;;
12689;SDS011;6409;56.294;14.480;2022-07-30T09:33:46;2.10;;;2.00;;
12689;SDS011;6409;56.294;14.480;2022-07-30T09:36:13;2.05;;;1.95;;
12689;SDS011;6409;56.294;14.480;2022-07-30T09:38:45;1.80;;;1.80;;
12689;SDS011;6409;56.294;14.480;2022-07-30T09:41:13;2.10;;;2.00;;
12689;SDS011;6409;56.294;14.480;2022-07-30T09:43:43;1.98;;;1.90;;
12689;SDS011;6409;56.294;14.480;2022-07-30T09:46:12;2.10;;;2.00;;
12689;SDS011;6409;56.294;14.480;2022-07-30T09:48:39;1.90;;;1.90;;
12689;SDS011;6409;56.294;14.480;2022-07-30T09:51:07;1.80;;;1.80;;
12689;SDS011;6409;56.294;14.480;2022-07-30T09:53:34;1.80;;;1.80;;
12689;SDS011;6409;56.294;14.480;2022-07-30T09:56:03;1.80;;;1.80;;
12689;SDS011;6409;56.294;14.480;2022-07-30T09:58:50;1.90;;;1.80;;
12689;SDS011;6409;56.294;14.480;2022-07-30T10:01:17;1.98;;;1.80;;
12689;SDS011;6409;56.294;14.480;2022-07-30T10:03:45;1.77;;;1.77;;
12689;SDS011;6409;56.294;14.480;2022-07-30T10:06:12;2.05;;;1.95;;
12689;SDS011;6409;56.294;14.480;2022-07-30T10:08:40;14.60;;;2.85;;
12689;SDS011;6409;56.294;14.480;2022-07-30T10:11:09;2.05;;;1.95;;
12689;SDS011;6409;56.294;14.480;2022-07-30T10:13:38;1.92;;;1.83;;
12689;SDS011;6409;56.294;14.480;2022-07-30T10:16:07;1.80;;;1.80;;
12689;SDS011;6409;56.294;14.480;2022-07-30T10:18:34;1.88;;;1.83;;
12689;SDS011;6409;56.294;14.480;2022-07-30T10:21:02;2.10;;;2.00;;
12689;SDS011;6409;56.294;14.480;2022-07-30T10:23:29;2.55;;;2.00;;
12689;SDS011;6409;56.294;14.480;2022-07-30T10:25:57;2.00;;;1.90;;
12689;SDS011;6409;56.294;14.480;2022-07-30T10:28:25;1.95;;;1.85;;
12689;SDS011;6409;56.294;14.480;2022-07-30T10:30:53;4.25;;;1.90;;
12689;SDS011;6409;56.294;14.480;2022-07-30T10:33:22;2.10;;;2.00;;
12689;SDS011;6409;56.294;14.480;2022-07-30T10:35:50;2.17;;;2.08;;
12689;SDS011;6409;56.294;14.480;2022-07-30T10:38:17;2.00;;;1.90;;
12689;SDS011;6409;56.294;14.480;2022-07-30T10:40:47;1.80;;;1.80;;
12689;SDS011;6409;56.294;14.480;2022-07-30T10:43:19;2.13;;;2.03;;
12689;SDS011;6409;56.294;14.480;2022-07-30T10:45:58;3.72;;;2.22;;
12689;SDS011;6409;56.294;14.480;2022-07-30T10:48:32;2.20;;;2.10;;
12689;SDS011;6409;56.294;14.480;2022-07-30T10:51:00;2.20;;;2.10;;
12689;SDS011;6409;56.294;14.480;2022-07-30T10:53:31;2.30;;;2.20;;
12689;SDS011;6409;56.294;14.480;2022-07-30T10:56:15;2.30;;;2.10;;
12689;SDS011;6409;56.294;14.480;2022-07-30T10:58:56;1.88;;;1.80;;
12689;SDS011;6409;56.294;14.480;2022-07-30T11:04:28;1.90;;;1.85;;
12689;SDS011;6409;56.294;14.480;2022-07-30T11:09:53;1.90;;;1.80;;
12689;SDS011;6409;56.294;14.480;2022-07-30T11:15:20;1.97;;;1.87;;
12689;SDS011;6409;56.294;14.480;2022-07-30T11:17:58;1.80;;;1.80;;
12689;SDS011;6409;56.294;14.480;2022-07-30T11:20:34;1.80;;;1.70;;
12689;SDS011;6409;56.294;14.480;2022-07-30T11:23:07;2.03;;;1.92;;
12689;SDS011;6409;56.294;14.480;2022-07-30T11:25:52;1.85;;;1.83;;
12689;SDS011;6409;56.294;14.480;2022-07-30T11:28:32;4.20;;;2.10;;
12689;SDS011;6409;56.294;14.480;2022-07-30T11:37:02;2.23;;;2.07;;
12689;SDS011;6409;56.294;14.480;2022-07-30T11:42:35;1.80;;;1.80;;
12689;SDS011;6409;56.294;14.480;2022-07-30T11:45:22;1.80;;;1.80;;
12689;SDS011;6409;56.294;14.480;2022-07-30T11:47:57;1.87;;;1.80;;
12689;SDS011;6409;56.294;14.480;2022-07-30T11:50:29;1.70;;;1.70;;
12689;SDS011;6409;56.294;14.480;2022-07-30T11:52:59;1.93;;;1.83;;
12689;SDS011;6409;56.294;14.480;2022-07-30T11:55:28;2.10;;;2.00;;
12689;SDS011;6409;56.294;14.480;2022-07-30T11:57:56;2.00;;;1.90;;
12689;SDS011;6409;56.294;14.480;2022-07-30T12:00:24;2.10;;;2.00;;
12689;SDS011;6409;56.294;14.480;2022-07-30T12:02:52;2.17;;;2.07;;
12689;SDS011;6409;56.294;14.480;2022-07-30T12:05:22;2.07;;;1.97;;
12689;SDS011;6409;56.294;14.480;2022-07-30T12:07:50;1.80;;;1.70;;
12689;SDS011;6409;56.294;14.480;2022-07-30T12:10:22;1.70;;;1.70;;
12689;SDS011;6409;56.294;14.480;2022-07-30T12:12:49;1.67;;;1.63;;
12689;SDS011;6409;56.294;14.480;2022-07-30T12:18:01;1.67;;;1.60;;
12689;SDS011;6409;56.294;14.480;2022-07-30T12:20:28;1.87;;;1.77;;
12689;SDS011;6409;56.294;14.480;2022-07-30T12:22:56;1.90;;;1.80;;
12689;SDS011;6409;56.294;14.480;2022-07-30T12:25:24;1.90;;;1.80;;
12689;SDS011;6409;56.294;14.480;2022-07-30T12:27:51;1.90;;;1.80;;
12689;SDS011;6409;56.294;14.480;2022-07-30T12:30:19;1.60;;;1.60;;
12689;SDS011;6409;56.294;14.480;2022-07-30T12:32:46;1.60;;;1.60;;
12689;SDS011;6409;56.294;14.480;2022-07-30T12:35:13;1.80;;;1.70;;
12689;SDS011;6409;56.294;14.480;2022-07-30T12:37:40;1.90;;;1.80;;
12689;SDS011;6409;56.294;14.480;2022-07-30T12:40:29;1.83;;;1.73;;
12689;SDS011;6409;56.294;14.480;2022-07-30T12:42:56;1.80;;;1.80;;
12689;SDS011;6409;56.294;14.480;2022-07-30T12:45:27;1.80;;;1.80;;
12689;SDS011;6409;56.294;14.480;2022-07-30T12:47:55;1.90;;;1.80;;
12689;SDS011;6409;56.294;14.480;2022-07-30T12:50:23;1.80;;;1.70;;
12689;SDS011;6409;56.294;14.480;2022-07-30T12:52:51;2.00;;;1.90;;
12689;SDS011;6409;56.294;14.480;2022-07-30T12:55:27;2.00;;;2.00;;
12689;SDS011;6409;56.294;14.480;2022-07-30T12:57:57;4.30;;;1.97;;
12689;SDS011;6409;56.294;14.480;2022-07-30T13:00:26;2.00;;;1.90;;
12689;SDS011;6409;56.294;14.480;2022-07-30T13:02:54;2.03;;;1.97;;
12689;SDS011;6409;56.294;14.480;2022-07-30T13:08:09;2.07;;;1.97;;
12689;SDS011;6409;56.294;14.480;2022-07-30T13:10:38;2.10;;;2.00;;
12689;SDS011;6409;56.294;14.480;2022-07-30T13:13:05;1.80;;;1.80;;
12689;SDS011;6409;56.294;14.480;2022-07-30T13:15:31;1.80;;;1.80;;
12689;SDS011;6409;56.294;14.480;2022-07-30T13:17:58;1.83;;;1.83;;
12689;SDS011;6409;56.294;14.480;2022-07-30T13:20:25;1.80;;;1.80;;
12689;SDS011;6409;56.294;14.480;2022-07-30T13:22:52;2.00;;;1.90;;
12689;SDS011;6409;56.294;14.480;2022-07-30T13:25:19;1.90;;;1.80;;
12689;SDS011;6409;56.294;14.480;2022-07-30T13:27:47;1.70;;;1.70;;
12689;SDS011;6409;56.294;14.480;2022-07-30T13:30:14;1.80;;;1.73;;
12689;SDS011;6409;56.294;14.480;2022-07-30T13:32:41;2.00;;;1.80;;
12689;SDS011;6409;56.294;14.480;2022-07-30T13:35:08;1.80;;;1.80;;
12689;SDS011;6409;56.294;14.480;2022-07-30T13:37:35;1.83;;;1.73;;
12689;SDS011;6409;56.294;14.480;2022-07-30T13:40:02;1.70;;;1.70;;
12689;SDS011;6409;56.294;14.480;2022-07-30T13:42:29;1.70;;;1.70;;
12689;SDS011;6409;56.294;14.480;2022-07-30T13:44:58;1.70;;;1.70;;
12689;SDS011;6409;56.294;14.480;2022-07-30T13:47:25;1.90;;;1.80;;
12689;SDS011;6409;56.294;14.480;2022-07-30T13:49:52;1.90;;;1.80;;
12689;SDS011;6409;56.294;14.480;2022-07-30T13:52:19;1.67;;;1.67;;
12689;SDS011;6409;56.294;14.480;2022-07-30T13:54:45;1.60;;;1.60;;
12689;SDS011;6409;56.294;14.480;2022-07-30T13:57:15;1.83;;;1.73;;
12689;SDS011;6409;56.294;14.480;2022-07-30T13:59:42;3.37;;;1.77;;
12689;SDS011;6409;56.294;14.480;2022-07-30T14:02:10;1.60;;;1.60;;
12689;SDS011;6409;56.294;14.480;2022-07-30T14:04:38;1.70;;;1.70;;
12689;SDS011;6409;56.294;14.480;2022-07-30T14:07:05;1.70;;;1.60;;
12689;SDS011;6409;56.294;14.480;2022-07-30T14:09:32;1.80;;;1.70;;
12689;SDS011;6409;56.294;14.480;2022-07-30T14:11:59;3.73;;;1.80;;
12689;SDS011;6409;56.294;14.480;2022-07-30T14:14:26;1.60;;;1.60;;
12689;SDS011;6409;56.294;14.480;2022-07-30T14:16:53;1.80;;;1.70;;
12689;SDS011;6409;56.294;14.480;2022-07-30T14:19:21;1.70;;;1.70;;
12689;SDS011;6409;56.294;14.480;2022-07-30T14:21:48;2.00;;;1.77;;
12689;SDS011;6409;56.294;14.480;2022-07-30T14:24:16;1.60;;;1.60;;
12689;SDS011;6409;56.294;14.480;2022-07-30T14:26:43;3.13;;;1.70;;
12689;SDS011;6409;56.294;14.480;2022-07-30T14:29:10;1.70;;;1.70;;
12689;SDS011;6409;56.294;14.480;2022-07-30T14:31:37;2.07;;;1.80;;
12689;SDS011;6409;56.294;14.480;2022-07-30T14:34:04;2.00;;;1.90;;
12689;SDS011;6409;56.294;14.480;2022-07-30T14:36:33;2.03;;;1.80;;
12689;SDS011;6409;56.294;14.480;2022-07-30T14:39:01;2.00;;;1.90;;
12689;SDS011;6409;56.294;14.480;2022-07-30T14:41:29;1.80;;;1.73;;
12689;SDS011;6409;56.294;14.480;2022-07-30T14:43:56;2.17;;;1.70;;
12689;SDS011;6409;56.294;14.480;2022-07-30T14:46:23;1.80;;;1.70;;
12689;SDS011;6409;56.294;14.480;2022-07-30T14:48:50;1.97;;;1.87;;
12689;SDS011;6409;56.294;14.480;2022-07-30T14:51:17;1.90;;;1.80;;
12689;SDS011;6409;56.294;14.480;2022-07-30T14:53:45;1.80;;;1.70;;
12689;SDS011;6409;56.294;14.480;2022-07-30T14:56:14;1.90;;;1.80;;
12689;SDS011;6409;56.294;14.480;2022-07-30T14:58:41;2.00;;;1.90;;
12689;SDS011;6409;56.294;14.480;2022-07-30T15:01:08;1.70;;;1.70;;
12689;SDS011;6409;56.294;14.480;2022-07-30T15:03:35;1.70;;;1.70;;
12689;SDS011;6409;56.294;14.480;2022-07-30T15:06:02;1.73;;;1.73;;
12689;SDS011;6409;56.294;14.480;2022-07-30T15:08:29;1.60;;;1.60;;
12689;SDS011;6409;56.294;14.480;2022-07-30T15:10:58;1.80;;;1.70;;
12689;SDS011;6409;56.294;14.480;2022-07-30T15:13:25;1.70;;;1.60;;
12689;SDS011;6409;56.294;14.480;2022-07-30T15:15:51;1.80;;;1.70;;
12689;SDS011;6409;56.294;14.480;2022-07-30T15:18:18;1.93;;;1.83;;